Time;durP1;ratioP1;P1;durP2;ratioP2;P2;SDS_P1;SDS_P2;PMS_P1;PMS_P2;Temp;Humidity;BMP_temperature;BMP_pressure;BME280_temperature;BME280_humidity;BME280_pressure;Samples;Min_cycle;Max_cycle;Signal;HPM_P1;HPM_P2
2024/01/08 00:00:12;;;;;;;5.53;5.03;;;0.00;99.90;;;;;;5052853;28;20163;-70
2024/01/08 00:02:38;;;;;;;5.07;4.20;;;-0.10;99.90;;;;;;5052793;28;20170;-70
2024/01/08 00:05:04;;;;;;;4.90;4.50;;;0.00;99.90;;;;;;5067344;28;20407;-70
2024/01/08 00:07:29;;;;;;;4.70;4.27;;;-0.10;99.90;;;;;;5072616;28;20721;-70
2024/01/08 00:09:55;;;;;;;4.20;3.90;;;0.00;99.90;;;;;;5072667;28;20561;-70
2024/01/08 00:12:20;;;;;;;3.70;3.40;;;0.10;99.90;;;;;;5072770;28;20175;-68
2024/01/08 00:14:46;;;;;;;5.90;4.43;;;0.10;99.90;;;;;;5060716;28;20196;-69
2024/01/08 00:17:12;;;;;;;4.93;4.43;;;0.00;99.90;;;;;;5034877;28;20274;-70
2024/01/08 00:19:38;;;;;;;3.83;3.53;;;-0.10;99.90;;;;;;5034869;28;20522;-69
2024/01/08 00:22:04;;;;;;;4.07;3.67;;;-0.10;99.90;;;;;;5055437;28;20204;-69
2024/01/08 00:24:29;;;;;;;9.03;4.07;;;-0.10;99.90;;;;;;5062364;28;20898;-69
2024/01/08 00:26:55;;;;;;;3.70;3.40;;;0.00;99.90;;;;;;5072963;28;20266;-70
2024/01/08 00:29:20;;;;;;;4.50;4.10;;;-0.10;99.90;;;;;;5072525;28;20171;-70
2024/01/08 00:31:46;;;;;;;4.60;4.20;;;0.00;99.90;;;;;;5072624;28;20655;-70
2024/01/08 00:34:12;;;;;;;4.77;4.27;;;0.00;99.90;;;;;;5065428;28;20201;-69
2024/01/08 00:36:37;;;;;;;4.73;4.20;;;0.00;99.90;;;;;;5052628;28;20159;-70
2024/01/08 00:39:03;;;;;;;4.43;4.00;;;-0.10;99.90;;;;;;5052434;28;20410;-70
2024/01/08 00:41:29;;;;;;;4.30;3.90;;;0.10;99.90;;;;;;5055437;28;20162;-69
2024/01/08 00:43:55;;;;;;;4.67;4.27;;;0.10;99.90;;;;;;5060353;28;20404;-68
2024/01/08 00:46:20;;;;;;;4.80;4.30;;;0.00;99.90;;;;;;5076312;28;20172;-70
2024/01/08 00:48:46;;;;;;;4.67;4.23;;;0.00;99.90;;;;;;5076113;28;20273;-70
2024/01/08 00:51:11;;;;;;;4.53;4.13;;;0.00;99.90;;;;;;5076454;28;20177;-70
2024/01/08 00:53:37;;;;;;;4.60;4.17;;;-0.10;99.90;;;;;;5073500;28;20169;-69
2024/01/08 00:56:03;;;;;;;5.60;4.70;;;-0.10;99.90;;;;;;5055696;28;20668;-70
2024/01/08 00:58:30;;;;;;;4.83;4.33;;;-0.20;99.90;;;;;;5056288;28;20186;-70
2024/01/08 01:00:56;;;;;;;5.90;4.40;;;-0.10;99.90;;;;;;5055590;28;20405;-70
2024/01/08 01:03:22;;;;;;;4.30;3.80;;;0.10;99.90;;;;;;5037753;28;20449;-69
2024/01/08 01:05:48;;;;;;;5.20;4.60;;;-0.10;99.90;;;;;;5075435;28;20637;-69
2024/01/08 01:08:13;;;;;;;5.10;4.00;;;-0.20;99.90;;;;;;5075491;28;20581;-69
2024/01/08 01:10:39;;;;;;;5.20;4.70;;;-0.20;99.90;;;;;;5075632;28;20224;-69
2024/01/08 01:13:05;;;;;;;4.70;4.30;;;-0.10;99.90;;;;;;5076311;28;20628;-69
2024/01/08 01:15:30;;;;;;;4.63;4.23;;;-0.10;99.90;;;;;;5058241;28;20703;-69
2024/01/08 01:17:56;;;;;;;5.87;4.77;;;-0.10;99.90;;;;;;5055711;28;20182;-69
2024/01/08 01:20:22;;;;;;;5.30;3.93;;;-0.10;99.90;;;;;;5052275;28;20167;-69
2024/01/08 01:22:48;;;;;;;5.27;4.77;;;-0.20;99.90;;;;;;5055609;28;20863;-69
2024/01/08 01:25:13;;;;;;;4.77;4.30;;;-0.10;99.90;;;;;;5052156;28;20506;-69
2024/01/08 01:27:39;;;;;;;5.07;4.57;;;0.00;99.90;;;;;;5064118;28;20615;-70
2024/01/08 01:30:06;;;;;;;4.87;4.00;;;0.00;99.90;;;;;;5055393;28;20166;-69
2024/01/08 01:32:32;;;;;;;4.83;4.33;;;-0.20;99.90;;;;;;5055745;28;20163;-69
2024/01/08 01:34:58;;;;;;;7.10;4.90;;;-0.20;99.90;;;;;;5067546;28;20510;-69
2024/01/08 01:37:23;;;;;;;5.20;4.43;;;-0.20;99.90;;;;;;5075140;28;20922;-69
2024/01/08 01:39:49;;;;;;;4.83;4.27;;;-0.20;99.90;;;;;;5075012;28;20173;-70
2024/01/08 01:42:16;;;;;;;5.37;4.87;;;0.00;99.90;;;;;;5074841;28;20161;-70
2024/01/08 01:44:42;;;;;;;5.80;5.30;;;0.10;99.90;;;;;;5064763;28;20176;-70
2024/01/08 01:47:08;;;;;;;6.10;4.73;;;0.00;99.90;;;;;;5054625;28;20578;-70
2024/01/08 01:49:34;;;;;;;5.30;4.80;;;0.00;99.90;;;;;;5055070;28;20179;-68
2024/01/08 01:52:00;;;;;;;6.30;5.70;;;-0.10;99.90;;;;;;5054664;28;20788;-70
2024/01/08 01:54:27;;;;;;;5.13;4.67;;;-0.10;99.90;;;;;;5044354;28;20442;-69
2024/01/08 01:56:58;;;;;;;5.80;5.20;;;-0.10;99.90;;;;;;5074398;28;20280;-68
2024/01/08 01:59:26;;;;;;;5.00;4.50;;;0.00;99.90;;;;;;5074617;28;20468;-70
2024/01/08 02:01:52;;;;;;;5.53;4.93;;;0.00;99.90;;;;;;5074443;28;20906;-69
2024/01/08 02:04:18;;;;;;;5.57;5.07;;;0.00;99.90;;;;;;5050114;28;20451;-69
2024/01/08 02:06:44;;;;;;;5.40;4.50;;;0.10;99.90;;;;;;5054391;28;20194;-69
2024/01/08 02:09:13;;;;;;;5.10;4.60;;;0.10;99.90;;;;;;5055055;28;20392;-69
2024/01/08 02:11:40;;;;;;;6.00;5.50;;;0.20;99.90;;;;;;5054356;28;20419;-69
2024/01/08 02:14:05;;;;;;;5.70;5.20;;;0.20;99.90;;;;;;5058991;28;20942;-69
2024/01/08 02:16:31;;;;;;;5.60;5.10;;;0.10;99.90;;;;;;5074767;28;20446;-69
2024/01/08 02:18:57;;;;;;;5.00;4.10;;;0.10;99.90;;;;;;5074511;28;20162;-69
2024/01/08 02:21:22;;;;;;;5.60;5.10;;;0.20;99.90;;;;;;5074106;28;20185;-69
2024/01/08 02:23:48;;;;;;;6.57;5.97;;;0.20;99.90;;;;;;5072193;28;20539;-69
2024/01/08 02:26:14;;;;;;;5.40;4.93;;;0.20;99.90;;;;;;5039113;28;20301;-69
2024/01/08 02:28:40;;;;;;;5.83;5.23;;;0.30;99.90;;;;;;5054486;28;20420;-70
2024/01/08 02:31:06;;;;;;;5.73;5.13;;;0.30;99.90;;;;;;5054142;28;20745;-70
2024/01/08 02:33:31;;;;;;;5.70;5.20;;;0.40;99.90;;;;;;5054048;28;20170;-69
2024/01/08 02:35:57;;;;;;;6.10;5.60;;;0.40;99.90;;;;;;5073841;28;20192;-69
2024/01/08 02:38:23;;;;;;;5.60;5.00;;;0.30;99.90;;;;;;5073909;28;20252;-69
2024/01/08 02:40:48;;;;;;;5.80;5.30;;;0.10;99.90;;;;;;5056104;28;20412;-69
2024/01/08 02:43:14;;;;;;;5.77;5.23;;;0.10;99.90;;;;;;5074235;28;20520;-70
2024/01/08 02:45:40;;;;;;;5.77;4.63;;;0.10;99.90;;;;;;5056924;28;20162;-69
2024/01/08 02:48:06;;;;;;;7.00;5.93;;;0.00;99.90;;;;;;5053850;28;20202;-69
2024/01/08 02:50:31;;;;;;;5.53;5.03;;;0.00;99.90;;;;;;5054423;28;20636;-70
2024/01/08 02:52:57;;;;;;;5.20;4.80;;;0.10;99.90;;;;;;5053683;28;20421;-69
2024/01/08 02:55:23;;;;;;;6.60;5.93;;;0.30;99.90;;;;;;5050296;28;20219;-70
2024/01/08 02:57:49;;;;;;;6.13;5.43;;;0.30;99.90;;;;;;5055645;28;20216;-70
2024/01/08 03:00:15;;;;;;;5.47;4.97;;;0.30;99.90;;;;;;5073460;28;20626;-69
2024/01/08 03:02:40;;;;;;;5.93;4.90;;;0.20;99.90;;;;;;5072501;28;20181;-70
2024/01/08 03:05:06;;;;;;;5.57;5.03;;;0.30;99.90;;;;;;5061369;28;20405;-69
2024/01/08 03:07:32;;;;;;;6.73;5.83;;;0.40;99.90;;;;;;5054302;28;20202;-67
2024/01/08 03:09:59;;;;;;;5.40;4.90;;;0.60;99.90;;;;;;5054323;28;20486;-67
2024/01/08 03:12:25;;;;;;;6.00;5.50;;;0.70;99.90;;;;;;5053595;28;20598;-68
2024/01/08 03:14:52;;;;;;;6.20;5.70;;;0.70;99.90;;;;;;5063560;28;20988;-68
2024/01/08 03:17:18;;;;;;;6.40;5.50;;;0.60;99.90;;;;;;5073232;28;20431;-67
2024/01/08 03:19:43;;;;;;;5.60;5.07;;;0.60;99.90;;;;;;5073378;28;20404;-68
2024/01/08 03:22:09;;;;;;;5.17;4.70;;;0.80;99.90;;;;;;5073190;28;20170;-68
2024/01/08 03:24:37;;;;;;;5.20;4.30;;;0.80;99.90;;;;;;5065744;28;20542;-68
2024/01/08 03:27:04;;;;;;;5.67;4.63;;;0.90;99.90;;;;;;5053250;28;20191;-68
2024/01/08 03:29:29;;;;;;;5.73;5.13;;;0.60;99.90;;;;;;5053789;28;20404;-68
2024/01/08 03:31:55;;;;;;;5.80;5.30;;;0.70;99.90;;;;;;5073113;28;20411;-69
2024/01/08 03:34:21;;;;;;;5.70;5.10;;;0.60;99.90;;;;;;5067591;28;20226;-68
2024/01/08 03:36:47;;;;;;;5.67;5.20;;;0.70;99.90;;;;;;5034981;28;20538;-68
2024/01/08 03:39:13;;;;;;;5.60;4.60;;;0.70;99.90;;;;;;5053158;28;20173;-68
2024/01/08 03:41:40;;;;;;;5.80;5.20;;;0.50;99.90;;;;;;5052928;28;20432;-68
2024/01/08 03:44:09;;;;;;;5.77;5.20;;;0.50;99.90;;;;;;5056116;28;20487;-68
2024/01/08 03:46:36;;;;;;;5.37;4.87;;;0.60;99.90;;;;;;5072950;28;20443;-68
2024/01/08 03:49:02;;;;;;;6.03;5.43;;;0.50;99.90;;;;;;5073165;28;20906;-68
2024/01/08 03:51:28;;;;;;;5.80;5.20;;;0.50;99.90;;;;;;5073471;28;20409;-67
2024/01/08 03:53:54;;;;;;;5.77;5.27;;;0.60;99.90;;;;;;5071212;28;20479;-68
2024/01/08 03:56:20;;;;;;;4.63;4.23;;;0.60;99.90;;;;;;5053433;28;20223;-68
2024/01/08 03:58:45;;;;;;;5.43;4.93;;;0.70;99.90;;;;;;5052764;28;20473;-69
2024/01/08 04:01:14;;;;;;;5.30;4.80;;;0.60;99.90;;;;;;5053017;28;20633;-68
2024/01/08 04:03:40;;;;;;;5.50;5.00;;;0.70;99.90;;;;;;5052767;28;20159;-68
2024/01/08 04:06:06;;;;;;;5.50;5.00;;;0.70;99.90;;;;;;5072336;28;20420;-67
2024/01/08 04:08:32;;;;;;;6.23;5.30;;;0.70;99.90;;;;;;5054583;28;20440;-68
2024/01/08 04:10:57;;;;;;;6.13;4.70;;;0.60;99.90;;;;;;5072963;28;20225;-68
2024/01/08 04:13:23;;;;;;;5.33;4.83;;;0.60;99.90;;;;;;5072798;28;20174;-68
2024/01/08 04:15:49;;;;;;;5.00;4.50;;;0.50;99.90;;;;;;5061876;28;20197;-68
2024/01/08 04:18:14;;;;;;;4.63;4.23;;;0.50;99.90;;;;;;5056362;28;20185;-68
2024/01/08 04:20:40;;;;;;;6.70;4.53;;;0.60;99.90;;;;;;5056527;28;20514;-67
2024/01/08 04:23:06;;;;;;;4.83;4.43;;;0.60;99.90;;;;;;5056370;28;20182;-67
2024/01/08 04:25:31;;;;;;;4.87;4.47;;;0.50;99.90;;;;;;5070807;28;20521;-67
2024/01/08 04:27:57;;;;;;;6.23;5.23;;;0.50;99.90;;;;;;5076455;28;20193;-67
2024/01/08 04:30:23;;;;;;;5.70;5.13;;;0.40;99.90;;;;;;5076168;28;20173;-67
2024/01/08 04:32:48;;;;;;;6.27;5.30;;;0.50;99.90;;;;;;5076126;28;20170;-67
2024/01/08 04:35:14;;;;;;;5.57;4.97;;;0.60;99.90;;;;;;5063805;28;20194;-67
2024/01/08 04:37:40;;;;;;;5.10;4.70;;;0.50;99.90;;;;;;5055932;28;20187;-68
2024/01/08 04:40:07;;;;;;;5.57;5.07;;;0.50;99.90;;;;;;5056311;28;20813;-68
2024/01/08 04:42:33;;;;;;;5.57;5.07;;;0.60;99.90;;;;;;5056057;28;20397;-67
2024/01/08 04:44:59;;;;;;;4.53;4.13;;;0.60;99.90;;;;;;5065713;28;20405;-68
2024/01/08 04:47:25;;;;;;;6.63;4.53;;;0.40;99.90;;;;;;5075944;28;20423;-69
2024/01/08 04:49:50;;;;;;;4.50;4.10;;;0.20;99.90;;;;;;5057843;28;20196;-68
2024/01/08 04:52:16;;;;;;;6.00;5.23;;;0.20;99.90;;;;;;5075848;28;20400;-67
2024/01/08 04:54:42;;;;;;;5.80;5.23;;;0.30;99.90;;;;;;5070007;28;20554;-67
2024/01/08 04:57:08;;;;;;;5.23;4.83;;;0.20;99.90;;;;;;5075554;28;20189;-68
2024/01/08 04:59:43;;;;;;;5.50;5.00;;;0.20;99.90;;;;;;5075911;28;20528;-68
2024/01/08 05:02:12;;;;;;;5.00;4.60;;;0.20;99.90;;;;;;5075857;28;20373;-67
2024/01/08 05:04:37;;;;;;;5.67;5.10;;;0.10;99.90;;;;;;5069010;28;20930;-67
2024/01/08 05:07:04;;;;;;;6.50;5.80;;;0.10;99.90;;;;;;5055424;28;20443;-67
2024/01/08 05:09:30;;;;;;;5.40;4.90;;;0.00;99.90;;;;;;5055647;28;20166;-67
2024/01/08 05:11:56;;;;;;;5.80;5.23;;;0.00;99.90;;;;;;5056350;28;20406;-68
2024/01/08 05:14:22;;;;;;;5.90;5.30;;;0.10;99.90;;;;;;5041577;28;20451;-68
2024/01/08 05:16:47;;;;;;;5.77;5.17;;;0.00;99.90;;;;;;5075985;28;20431;-68
2024/01/08 05:19:13;;;;;;;5.80;5.30;;;-0.10;99.90;;;;;;5075493;28;20301;-68
2024/01/08 05:21:38;;;;;;;5.43;4.93;;;-0.10;99.90;;;;;;5044466;28;20216;-68
2024/01/08 05:24:05;;;;;;;6.73;6.13;;;0.00;99.90;;;;;;5056837;28;20300;-68
2024/01/08 05:26:31;;;;;;;6.33;5.83;;;0.00;99.90;;;;;;5074503;28;20166;-68
2024/01/08 05:28:56;;;;;;;6.67;5.90;;;-0.10;99.90;;;;;;5075689;28;20415;-67
2024/01/08 05:31:22;;;;;;;6.30;5.70;;;-0.20;99.90;;;;;;5057178;28;20667;-67
2024/01/08 05:33:49;;;;;;;8.30;6.00;;;-0.10;99.90;;;;;;5056743;28;20177;-68
2024/01/08 05:36:15;;;;;;;6.43;5.83;;;0.00;99.90;;;;;;5074302;28;20466;-68
2024/01/08 05:38:40;;;;;;;6.30;5.70;;;0.10;99.90;;;;;;5074957;28;20451;-68
2024/01/08 05:41:06;;;;;;;6.80;6.10;;;-0.20;99.90;;;;;;5074846;28;20400;-68
2024/01/08 05:43:37;;;;;;;5.57;5.07;;;-0.10;99.90;;;;;;5074602;28;20243;-69
2024/01/08 05:46:04;;;;;;;5.97;4.53;;;-0.10;99.90;;;;;;5057023;28;20185;-68
2024/01/08 05:48:36;;;;;;;6.70;5.80;;;-0.10;99.90;;;;;;5054693;28;20428;-68
2024/01/08 05:51:07;;;;;;;5.40;4.77;;;-0.10;99.90;;;;;;5054657;28;20389;-67
2024/01/08 05:53:32;;;;;;;7.23;4.70;;;0.00;99.90;;;;;;5054860;28;20896;-68
2024/01/08 05:55:58;;;;;;;5.37;4.87;;;0.10;99.90;;;;;;5071248;28;20496;-67
2024/01/08 05:58:24;;;;;;;6.00;5.20;;;0.10;99.90;;;;;;5056611;28;20200;-68
2024/01/08 06:00:50;;;;;;;5.53;5.10;;;0.20;99.90;;;;;;5074515;28;20166;-69
2024/01/08 06:03:15;;;;;;;9.33;5.03;;;0.30;99.90;;;;;;5074601;28;20658;-69
2024/01/08 06:05:41;;;;;;;5.60;4.80;;;0.20;99.90;;;;;;5059909;28;20408;-69
2024/01/08 06:08:08;;;;;;;6.57;5.60;;;0.20;99.90;;;;;;5054202;28;20284;-67
2024/01/08 06:10:34;;;;;;;6.70;5.83;;;0.10;99.90;;;;;;5054277;28;20174;-67
2024/01/08 06:13:00;;;;;;;6.90;5.20;;;0.00;99.90;;;;;;5054389;28;20411;-64
2024/01/08 06:15:25;;;;;;;6.20;4.93;;;0.20;99.90;;;;;;5066103;28;20589;-68
2024/01/08 06:17:51;;;;;;;8.80;4.93;;;0.30;99.90;;;;;;5070796;28;20197;-65
2024/01/08 06:20:16;;;;;;;5.87;5.37;;;0.10;99.90;;;;;;5074205;28;20161;-67
2024/01/08 06:22:42;;;;;;;6.80;4.90;;;-0.10;99.90;;;;;;5074331;28;20165;-67
2024/01/08 06:25:08;;;;;;;5.93;4.80;;;-0.20;99.90;;;;;;5064482;28;20178;-67
2024/01/08 06:27:33;;;;;;;6.50;4.67;;;-0.10;99.90;;;;;;5053947;28;20259;-67
2024/01/08 06:29:59;;;;;;;7.53;5.03;;;0.00;99.90;;;;;;5054093;28;20725;-67
2024/01/08 06:32:25;;;;;;;6.70;4.73;;;0.00;99.90;;;;;;5054266;28;20174;-66
2024/01/08 06:34:51;;;;;;;5.53;5.00;;;-0.10;99.90;;;;;;5070283;28;20195;-68
2024/01/08 06:37:17;;;;;;;6.47;5.40;;;0.00;99.90;;;;;;5072809;28;20416;-69
2024/01/08 06:39:42;;;;;;;6.47;5.43;;;0.10;99.90;;;;;;5072585;28;20223;-69
2024/01/08 06:42:08;;;;;;;8.63;5.17;;;0.00;99.90;;;;;;5073876;28;20667;-68
2024/01/08 06:44:34;;;;;;;5.30;4.80;;;0.00;99.90;;;;;;5058959;28;20583;-67
2024/01/08 06:46:59;;;;;;;5.80;5.27;;;0.00;99.90;;;;;;5053747;28;20193;-65
2024/01/08 06:49:25;;;;;;;5.03;3.83;;;0.10;99.90;;;;;;5054282;28;20644;-67
2024/01/08 06:51:50;;;;;;;6.33;5.40;;;0.10;99.90;;;;;;5053473;28;20192;-67
2024/01/08 06:54:16;;;;;;;5.40;4.90;;;0.10;99.90;;;;;;5065652;28;20255;-68
2024/01/08 06:56:42;;;;;;;7.67;5.50;;;0.20;99.90;;;;;;5055466;28;20173;-68
2024/01/08 06:59:07;;;;;;;6.13;5.53;;;0.00;99.90;;;;;;5073330;28;20158;-69
2024/01/08 07:01:33;;;;;;;6.03;5.40;;;-0.10;99.90;;;;;;5073373;28;20177;-67
2024/01/08 07:03:59;;;;;;;10.60;5.07;;;0.00;99.90;;;;;;5064599;28;20635;-67
2024/01/08 07:06:24;;;;;;;5.10;4.60;;;0.00;99.90;;;;;;5053666;28;20237;-67
2024/01/08 07:08:50;;;;;;;5.20;4.70;;;-0.20;99.90;;;;;;5053534;28;20170;-67
2024/01/08 07:11:23;;;;;;;6.10;5.50;;;-0.20;99.90;;;;;;5053273;28;20228;-69
2024/01/08 07:13:49;;;;;;;6.87;5.50;;;-0.10;99.90;;;;;;5060982;28;20177;-67
2024/01/08 07:16:15;;;;;;;5.23;4.73;;;0.00;99.90;;;;;;5073137;28;20408;-67
2024/01/08 07:18:42;;;;;;;7.47;6.77;;;-0.10;99.90;;;;;;5073069;28;20455;-67
2024/01/08 07:21:09;;;;;;;5.03;4.53;;;-0.10;99.90;;;;;;5073184;28;20405;-67
2024/01/08 07:23:35;;;;;;;6.77;5.13;;;0.00;99.90;;;;;;5067329;28;20900;-68
2024/01/08 07:26:01;;;;;;;6.20;4.90;;;0.00;99.90;;;;;;5053222;28;20404;-69
2024/01/08 07:28:28;;;;;;;5.13;4.63;;;0.10;99.90;;;;;;5052951;28;20806;-68
2024/01/08 07:30:54;;;;;;;8.93;5.00;;;-0.10;99.90;;;;;;5021004;28;20218;-69
2024/01/08 07:33:21;;;;;;;7.13;5.20;;;-0.20;99.90;;;;;;5062227;28;20903;-67
2024/01/08 07:35:47;;;;;;;5.80;4.97;;;0.00;99.90;;;;;;5052834;28;20448;-68
2024/01/08 07:38:12;;;;;;;5.13;4.63;;;0.10;99.90;;;;;;5053239;28;20421;-67
2024/01/08 07:40:38;;;;;;;7.40;5.90;;;0.30;99.90;;;;;;5052989;28;20423;-67
2024/01/08 07:43:03;;;;;;;5.57;4.87;;;0.40;99.90;;;;;;5054334;28;20269;-67
2024/01/08 07:45:29;;;;;;;5.73;5.17;;;0.60;99.90;;;;;;5073332;28;20247;-68
2024/01/08 07:47:56;;;;;;;6.17;5.57;;;0.40;99.90;;;;;;5073013;28;20186;-67
2024/01/08 07:50:22;;;;;;;6.17;5.67;;;0.30;99.90;;;;;;5076343;28;20534;-68
2024/01/08 07:52:48;;;;;;;6.20;5.20;;;0.30;99.90;;;;;;5077153;28;20414;-66
2024/01/08 07:55:13;;;;;;;6.70;5.30;;;0.10;99.90;;;;;;5057398;28;20571;-66
2024/01/08 07:57:39;;;;;;;5.20;4.70;;;0.30;99.90;;;;;;5039109;28;20190;-67
2024/01/08 08:00:06;;;;;;;5.97;5.37;;;0.40;99.90;;;;;;5056601;28;20190;-67
2024/01/08 08:02:33;;;;;;;6.13;4.90;;;0.50;99.90;;;;;;5056944;28;20176;-68
2024/01/08 08:04:58;;;;;;;5.07;4.57;;;0.40;99.90;;;;;;5074166;28;20411;-66
2024/01/08 08:07:24;;;;;;;5.53;5.03;;;0.50;99.90;;;;;;5076813;28;20435;-66
2024/01/08 08:09:50;;;;;;;6.33;4.77;;;0.40;99.90;;;;;;5076718;28;20172;-68
2024/01/08 08:12:16;;;;;;;5.93;5.30;;;0.50;99.90;;;;;;5076785;28;20166;-67
2024/01/08 08:14:43;;;;;;;6.60;5.50;;;0.30;99.90;;;;;;5064601;28;20801;-68
2024/01/08 08:17:09;;;;;;;8.70;6.20;;;0.20;99.90;;;;;;5056437;28;20413;-67
2024/01/08 08:19:35;;;;;;;5.67;5.17;;;0.30;99.90;;;;;;5056357;28;20483;-68
2024/01/08 08:22:01;;;;;;;5.13;4.63;;;0.30;99.90;;;;;;5056333;28;20515;-67
2024/01/08 08:24:28;;;;;;;6.20;5.50;;;0.20;99.90;;;;;;5068531;28;20231;-68
2024/01/08 08:26:53;;;;;;;10.00;9.10;;;0.10;99.90;;;;;;5076541;28;20186;-68
2024/01/08 08:29:19;;;;;;;9.00;7.00;;;0.20;99.90;;;;;;5076362;28;20496;-68
2024/01/08 08:31:44;;;;;;;6.70;5.83;;;0.30;99.90;;;;;;5076455;28;20598;-67
2024/01/08 08:34:10;;;;;;;6.60;5.20;;;0.50;99.90;;;;;;5066379;28;20198;-68
2024/01/08 08:36:39;;;;;;;6.03;4.77;;;0.50;99.90;;;;;;5056502;28;20501;-68
2024/01/08 08:39:05;;;;;;;8.47;6.50;;;0.30;99.90;;;;;;5056042;28;20637;-68
2024/01/08 08:41:31;;;;;;;6.57;5.33;;;0.30;99.90;;;;;;5056189;28;20962;-68
2024/01/08 08:43:57;;;;;;;7.10;5.77;;;0.10;99.90;;;;;;5063597;28;20403;-68
2024/01/08 08:46:22;;;;;;;5.20;4.70;;;0.10;99.90;;;;;;5075762;28;20390;-68
2024/01/08 08:48:48;;;;;;;6.13;5.30;;;0.00;99.90;;;;;;5057855;28;20492;-68
2024/01/08 08:51:14;;;;;;;5.90;5.30;;;0.00;99.90;;;;;;5058081;28;20177;-67
2024/01/08 08:53:39;;;;;;;6.10;5.43;;;0.20;99.90;;;;;;5070820;28;20169;-67
2024/01/08 08:56:05;;;;;;;6.70;5.50;;;0.40;99.90;;;;;;5055926;28;20197;-68
2024/01/08 08:58:31;;;;;;;5.63;5.13;;;0.20;99.90;;;;;;5055598;28;20183;-69
2024/01/08 09:00:56;;;;;;;5.30;4.80;;;0.20;99.90;;;;;;5054501;28;20170;-68
2024/01/08 09:03:22;;;;;;;6.30;5.07;;;0.20;99.90;;;;;;5040350;28;20446;-68
2024/01/08 09:05:48;;;;;;;5.50;4.67;;;0.20;99.90;;;;;;5075442;28;20166;-68
2024/01/08 09:08:14;;;;;;;5.30;4.80;;;0.30;99.90;;;;;;5090720;22;20688;-69
2024/01/08 09:10:39;;;;;;;5.80;4.90;;;0.40;99.90;;;;;;5077035;28;20250;-69
2024/01/08 09:13:05;;;;;;;6.20;5.20;;;0.40;99.90;;;;;;5076049;28;20483;-69
2024/01/08 09:15:30;;;;;;;5.47;4.97;;;0.30;99.90;;;;;;5075245;28;20678;-67
2024/01/08 09:17:56;;;;;;;8.07;5.80;;;0.40;99.90;;;;;;5074981;28;20185;-68
2024/01/08 09:20:22;;;;;;;5.23;4.73;;;0.50;99.90;;;;;;5075385;28;20161;-69
2024/01/08 09:22:48;;;;;;;5.30;4.80;;;0.40;99.90;;;;;;5075051;28;20173;-69
2024/01/08 09:25:14;;;;;;;5.30;4.80;;;0.30;99.90;;;;;;5057109;28;20405;-69
2024/01/08 09:27:42;;;;;;;6.10;5.30;;;0.30;99.90;;;;;;5055169;28;20193;-69
2024/01/08 09:30:08;;;;;;;6.83;5.53;;;0.30;99.90;;;;;;5055215;28;20265;-69
2024/01/08 09:32:34;;;;;;;5.57;5.07;;;0.40;99.90;;;;;;5070782;28;20407;-70
2024/01/08 09:35:00;;;;;;;5.83;5.30;;;0.30;99.90;;;;;;5056417;28;20467;-69
2024/01/08 09:37:25;;;;;;;5.40;4.90;;;0.30;99.90;;;;;;5055723;28;20227;-69
2024/01/08 09:39:52;;;;;;;5.93;4.80;;;0.50;99.90;;;;;;5055687;28;20171;-69
2024/01/08 09:42:26;;;;;;;5.87;5.30;;;0.50;99.90;;;;;;5055192;28;20660;-69
2024/01/08 09:44:54;;;;;;;6.17;5.57;;;0.60;99.90;;;;;;5069534;28;20393;-70
2024/01/08 09:47:20;;;;;;;5.57;5.10;;;0.70;99.90;;;;;;5075555;28;20518;-69
2024/01/08 09:49:46;;;;;;;5.53;5.03;;;0.80;99.90;;;;;;5075270;28;20416;-69
2024/01/08 09:52:16;;;;;;;7.97;5.30;;;0.80;99.90;;;;;;5074681;28;20400;-69
2024/01/08 09:54:42;;;;;;;9.40;5.67;;;0.80;99.90;;;;;;5061312;28;20198;-69
2024/01/08 09:57:08;;;;;;;5.73;5.23;;;0.70;99.90;;;;;;5054434;28;20478;-69
2024/01/08 09:59:34;;;;;;;5.50;5.00;;;0.50;99.90;;;;;;5054293;28;20398;-69
2024/01/08 10:02:00;;;;;;;7.30;5.40;;;0.80;99.90;;;;;;5054597;28;20454;-70
2024/01/08 10:04:26;;;;;;;6.43;5.07;;;0.50;99.90;;;;;;5064863;28;20170;-69
2024/01/08 10:07:04;;;;;;;4.97;4.47;;;0.20;99.90;;;;;;5070837;28;20169;-68
2024/01/08 10:09:30;;;;;;;6.50;5.30;;;0.20;99.90;;;;;;5074582;28;20822;-68
2024/01/08 10:11:55;;;;;;;6.60;5.20;;;0.20;99.90;;;;;;5073791;28;20461;-68
2024/01/08 10:14:23;;;;;;;5.17;4.63;;;0.20;99.90;;;;;;5064217;28;20190;-69
2024/01/08 10:16:49;;;;;;;8.00;6.40;;;0.40;99.90;;;;;;5054343;28;20171;-69
2024/01/08 10:19:17;;;;;;;4.40;4.00;;;0.40;99.90;;;;;;5054073;28;20425;-68
2024/01/08 10:21:47;;;;;;;5.20;4.70;;;0.30;99.90;;;;;;5054111;28;20289;-67
2024/01/08 10:24:13;;;;;;;7.67;4.63;;;0.30;99.90;;;;;;5062309;28;20404;-68
2024/01/08 10:26:41;;;;;;;5.60;5.00;;;0.50;99.90;;;;;;5074175;28;20419;-68
2024/01/08 10:29:11;;;;;;;5.87;4.83;;;0.50;99.90;;;;;;5073655;28;20448;-68
2024/01/08 10:31:36;;;;;;;5.73;4.80;;;0.50;99.90;;;;;;5073838;28;20403;-69
2024/01/08 10:34:04;;;;;;;6.80;5.10;;;0.50;99.90;;;;;;5066845;28;20856;-69
2024/01/08 10:36:32;;;;;;;5.93;4.90;;;0.50;99.90;;;;;;5035886;28;20641;-68
2024/01/08 10:39:01;;;;;;;6.93;5.00;;;0.60;99.90;;;;;;5053616;28;20429;-69
2024/01/08 10:41:27;;;;;;;8.00;5.53;;;0.70;99.90;;;;;;5053379;28;20409;-69
2024/01/08 10:43:53;;;;;;;6.30;5.33;;;1.10;99.90;;;;;;5058910;28;20396;-69
2024/01/08 10:46:20;;;;;;;4.93;4.53;;;0.80;99.90;;;;;;5073363;28;20408;-68
2024/01/08 10:48:46;;;;;;;6.53;5.67;;;0.80;99.90;;;;;;5073297;28;20198;-69
2024/01/08 10:51:15;;;;;;;6.27;5.33;;;0.50;99.90;;;;;;5073326;28;20760;-69
2024/01/08 10:53:45;;;;;;;5.90;5.30;;;0.40;99.90;;;;;;5069828;28;20466;-69
2024/01/08 10:56:18;;;;;;;6.90;5.30;;;0.30;99.90;;;;;;5035376;28;20526;-68
2024/01/08 10:58:57;;;;;;;7.23;5.53;;;0.50;99.90;;;;;;5053415;28;20813;-68
2024/01/08 11:01:23;;;;;;;5.70;5.20;;;0.80;99.90;;;;;;5053463;28;20389;-68
2024/01/08 11:03:49;;;;;;;5.50;4.80;;;0.90;99.90;;;;;;5057937;28;20400;-69
2024/01/08 11:06:15;;;;;;;5.20;4.60;;;0.70;99.90;;;;;;5073385;28;20195;-70
2024/01/08 11:08:42;;;;;;;6.77;4.87;;;0.50;99.90;;;;;;5072896;28;20448;-69
2024/01/08 11:11:09;;;;;;;8.30;5.23;;;0.60;99.90;;;;;;5073392;28;20412;-70
2024/01/08 11:13:36;;;;;;;4.50;4.10;;;0.80;99.90;;;;;;5070454;28;20933;-69
2024/01/08 11:16:06;;;;;;;5.43;4.93;;;0.60;99.90;;;;;;5035057;28;20483;-69
2024/01/08 11:18:32;;;;;;;6.00;5.07;;;0.40;99.90;;;;;;5053165;28;20436;-69
2024/01/08 11:20:59;;;;;;;11.23;5.10;;;0.60;99.90;;;;;;5018633;28;20496;-69
2024/01/08 11:23:36;;;;;;;6.20;5.60;;;0.50;99.90;;;;;;5053413;28;20582;-68
2024/01/08 11:26:04;;;;;;;5.63;5.00;;;0.50;99.90;;;;;;5073035;28;20467;-69
2024/01/08 11:28:31;;;;;;;4.90;4.40;;;0.70;99.90;;;;;;5068573;28;20429;-69
2024/01/08 11:31:09;;;;;;;5.37;4.87;;;0.80;99.90;;;;;;5046590;28;20419;-69
2024/01/08 11:33:45;;;;;;;6.23;5.10;;;0.70;99.90;;;;;;5070709;28;20399;-69
2024/01/08 11:36:17;;;;;;;5.47;4.97;;;0.80;99.90;;;;;;5053158;28;20429;-69
2024/01/08 11:39:00;;;;;;;5.80;4.70;;;0.90;99.90;;;;;;5052746;28;20513;-69
2024/01/08 11:41:25;;;;;;;5.57;4.90;;;0.90;99.90;;;;;;5052634;28;20440;-69
2024/01/08 11:43:52;;;;;;;5.90;5.33;;;0.90;99.90;;;;;;5056972;28;20412;-69
2024/01/08 11:46:18;;;;;;;5.03;4.20;;;0.70;99.90;;;;;;5073259;28;20200;-69
2024/01/08 11:48:43;;;;;;;4.57;4.17;;;0.90;99.90;;;;;;5054652;28;20431;-69
2024/01/08 11:51:09;;;;;;;6.10;5.17;;;0.80;99.90;;;;;;5072954;28;20194;-69
2024/01/08 11:53:34;;;;;;;4.60;4.20;;;0.80;99.90;;;;;;5070579;28;20170;-69
2024/01/08 11:56:00;;;;;;;5.87;4.87;;;0.70;99.90;;;;;;5052456;28;20194;-68
2024/01/08 11:58:26;;;;;;;5.00;4.27;;;0.90;99.90;;;;;;5052663;28;20182;-70
2024/01/08 12:00:52;;;;;;;5.20;4.70;;;1.10;99.90;;;;;;5052512;28;20935;-70
2024/01/08 12:03:21;;;;;;;3.90;3.60;;;1.20;99.90;;;;;;5052792;28;20182;-70
2024/01/08 12:06:01;;;;;;;5.63;4.63;;;1.20;99.90;;;;;;5072343;28;20252;-70
2024/01/08 12:08:30;;;;;;;5.27;4.40;;;1.00;99.90;;;;;;5069606;28;20447;-69
2024/01/08 12:10:56;;;;;;;4.73;4.10;;;0.70;99.90;;;;;;5072715;28;20918;-70
2024/01/08 12:13:21;;;;;;;7.33;5.77;;;0.70;99.90;;;;;;5054430;28;20454;-69
2024/01/08 12:15:48;;;;;;;5.43;4.80;;;0.70;99.90;;;;;;5052449;28;20244;-69
2024/01/08 12:18:14;;;;;;;4.90;4.33;;;0.70;99.90;;;;;;5052399;28;20189;-69
2024/01/08 12:20:40;;;;;;;5.80;4.60;;;0.90;99.90;;;;;;5052328;28;20899;-69
2024/01/08 12:23:05;;;;;;;7.70;5.20;;;1.00;99.90;;;;;;5052263;28;20170;-69
2024/01/08 12:25:31;;;;;;;4.90;4.40;;;0.90;99.90;;;;;;5069571;28;20207;-69
2024/01/08 12:28:00;;;;;;;5.20;4.70;;;1.30;99.90;;;;;;5054229;28;20282;-69
2024/01/08 12:30:29;;;;;;;4.53;4.10;;;1.30;99.90;;;;;;5072363;28;20162;-69
2024/01/08 12:32:57;;;;;;;6.30;5.57;;;1.20;99.90;;;;;;5054276;28;20496;-69
2024/01/08 12:35:23;;;;;;;5.30;4.60;;;1.10;99.90;;;;;;5057561;28;20437;-70
2024/01/08 12:37:48;;;;;;;5.07;4.67;;;1.30;99.90;;;;;;5055937;28;20421;-69
2024/01/08 12:40:14;;;;;;;5.17;4.67;;;1.50;99.90;;;;;;5037906;28;20416;-69
2024/01/08 12:42:42;;;;;;;5.33;4.83;;;1.40;99.90;;;;;;5046214;28;20231;-69
2024/01/08 12:45:10;;;;;;;5.10;4.30;;;1.40;99.90;;;;;;5046099;28;20178;-69
2024/01/08 12:47:36;;;;;;;5.67;4.20;;;1.10;99.90;;;;;;5028279;28;20900;-69
2024/01/08 12:50:01;;;;;;;4.60;4.13;;;1.10;99.90;;;;;;5046265;28;20405;-69